Terminal Aerodrome Forecast
Issued by NWS

Home | Current Version | Previous Version | Text Only | Print | Product List | Glossary On
Versions: 1 2 3 4 5 6 7 8 9 10 11 12 13 14 15 16
000
FTUS46 KMTR 061139
TAFOAK
TAF
KOAK 061139Z 0612/0718 27009KT P6SM FEW010 FEW060 OVC080
     FM061600 26010KT P6SM -RA BKN025 OVC040
     FM062200 27010KT P6SM VCSH BKN025
     FM070300 27008KT P6SM SCT025 BKN050
     FM070600 28008KT P6SM BKN025
     FM071400 26008KT P6SM -RA BKN025=

USA.gov is the U.S. government's official web portal to all federal, state and local government web resources and services.